This is the latest recevied weather packets stored in our database for station/object LKCS. If no packets are shown the sender has not sent any weather packets the latest 10 day(s).
| Time | Temp. | Humidity | Pressure | Rain* | Wind** | Luminosity | Snow |
|---|---|---|---|---|---|---|---|
| 1777314786 | 15° C | 30% | 1019 hPa | - | - | - | - |
| 1777312967 | 15° C | 30% | 1019 hPa | - | - | - | - |
| 1777311185 | 15° C | 30% | 1019 hPa | - | - | - | - |
| 1777309360 | 16.11° C | 29% | 1019 hPa | - | - | - | - |
| 1777307559 | 17.22° C | 25% | 1019 hPa | - | - | - | - |
| 1777305788 | 17.22° C | 25% | 1019 hPa | - | - | - | - |
| 1777303985 | 17.22° C | 25% | 1019 hPa | - | - | - | - |
| 1777302186 | 17.22° C | 25% | 1020 hPa | - | - | - | - |
| 1777300384 | 17.22° C | 25% | 1020 hPa | - | - | - | - |
| 1777298593 | 17.22° C | 21% | 1020 hPa | - | - | - | - |
| 1777296758 | 17.78° C | 22% | 1020 hPa | - | - | - | - |
| 1777294967 | 17.22° C | 25% | 1021 hPa | - | - | - | - |
| 1777293184 | 17.22° C | 20% | 1021 hPa | - | - | - | - |
| 1777291395 | 16.11° C | 26% | 1021 hPa | - | - | - | - |
| 1777289558 | 16.11° C | 29% | 1022 hPa | - | - | - | - |
| 1777287774 | 15° C | 30% | 1022 hPa | - | - | - | - |
| 1777285986 | 15° C | 30% | 1022 hPa | - | - | - | - |
| 1777284195 | 13.89° C | 35% | 1022 hPa | - | - | - | - |
| 1777282385 | 12.78° C | 37% | 1023 hPa | - | - | - | - |
| 1777280566 | 12.22° C | 37% | 1023 hPa | - | - | - | - |
| 1777278786 | 11.11° C | 43% | 1023 hPa | - | - | - | - |
| 1777276994 | 10° C | 46% | 1023 hPa | - | - | - | - |
| 1777275185 | 8.89° C | 53% | 1023 hPa | - | - | - | - |
| 1777273374 | 7.78° C | 61% | 1023 hPa | - | - | - | - |
| 1777271586 | 6.11° C | 65% | 1023 hPa | - | - | - | - |
* Rain since midnight (hover to see other rain measurements)
** Current wind speed in m/s (hover to see current wind gust speed)